Time;durP1;ratioP1;P1;durP2;ratioP2;P2;SDS_P1;SDS_P2;PMS_P1;PMS_P2;Temp;Humidity;BMP_temperature;BMP_pressure;BME280_temperature;BME280_humidity;BME280_pressure;Samples;Min_cycle;Max_cycle;Signal;HPM_P1;HPM_P2
2022/10/05 00:00:26;;;;;;;;;;;;;;;20.90;56.87;99606.66;2107308;27;21429;-52
2022/10/05 00:01:29;;;;;;;;;;;;;;;20.91;57.06;99615.59;2108236;27;19924;-50
2022/10/05 00:02:30;;;;;;;;;;;;;;;20.91;56.96;99612.88;2106337;27;19934;-48
2022/10/05 00:03:35;;;;;;;;;;;;;;;20.92;56.92;99611.84;2105861;27;19931;-48
2022/10/05 00:04:36;;;;;;;;;;;;;;;20.91;57.05;99612.88;2106976;27;19932;-51
2022/10/05 00:05:39;;;;;;;;;;;;;;;20.93;57.18;99610.84;2104691;27;20019;-49
2022/10/05 00:06:40;;;;;;;;;;;;;;;20.91;57.01;99611.03;2112969;27;19935;-50
2022/10/05 00:07:42;;;;;;;;;;;;;;;20.91;56.80;99616.41;2109208;27;19932;-47
2022/10/05 00:08:43;;;;;;;;;;;;;;;20.91;56.96;99624.50;2105118;27;19935;-50
2022/10/05 00:09:45;;;;;;;;;;;;;;;20.90;56.98;99622.84;2106924;27;19933;-51
2022/10/05 00:10:46;;;;;;;;;;;;;;;20.90;57.11;99619.31;2108573;27;19986;-51
2022/10/05 00:11:49;;;;;;;;;;;;;;;20.91;57.16;99620.97;2106911;27;19927;-50
2022/10/05 00:12:49;;;;;;;;;;;;;;;20.91;56.95;99619.09;2112149;27;21041;-48
2022/10/05 00:13:51;;;;;;;;;;;;;;;20.92;57.03;99628.03;2102687;27;19932;-49
2022/10/05 00:14:54;;;;;;;;;;;;;;;20.92;56.77;99634.28;2102180;27;19928;-50
2022/10/05 00:15:58;;;;;;;;;;;;;;;20.92;56.99;99622.63;2103056;27;20069;-48
2022/10/05 00:16:59;;;;;;;;;;;;;;;20.92;57.11;99628.03;2102835;27;19931;-48
2022/10/05 00:18:02;;;;;;;;;;;;;;;20.90;56.79;99630.09;2103436;27;20304;-49
2022/10/05 00:19:10;;;;;;;;;;;;;;;20.91;56.98;99634.47;2105732;27;19938;-49
2022/10/05 00:20:16;;;;;;;;;;;;;;;20.90;57.02;99630.94;2105861;27;19923;-51
2022/10/05 00:21:19;;;;;;;;;;;;;;;20.92;57.23;99634.28;2105401;27;19932;-50
2022/10/05 00:22:22;;;;;;;;;;;;;;;20.91;56.86;99634.47;2101940;27;20051;-50
2022/10/05 00:23:24;;;;;;;;;;;;;;;20.91;56.91;99626.38;2105423;27;19934;-49
2022/10/05 00:24:26;;;;;;;;;;;;;;;20.91;56.87;99631.75;2105791;27;19931;-48
2022/10/05 00:25:26;;;;;;;;;;;;;;;20.92;57.08;99622.63;2107723;27;19927;-50
2022/10/05 00:26:32;;;;;;;;;;;;;;;20.90;56.81;99628.25;2102394;27;19954;-48
2022/10/05 00:27:35;;;;;;;;;;;;;;;20.90;57.07;99625.53;2105793;27;19943;-49
2022/10/05 00:28:36;;;;;;;;;;;;;;;20.90;56.93;99627.41;2103758;27;19974;-51
2022/10/05 00:29:37;;;;;;;;;;;;;;;20.92;56.83;99630.72;2107465;27;20434;-50
2022/10/05 00:30:39;;;;;;;;;;;;;;;20.91;56.79;99626.38;2108251;27;19927;-48
2022/10/05 00:31:40;;;;;;;;;;;;;;;20.91;56.98;99623.66;2102103;27;19923;-54
2022/10/05 00:32:41;;;;;;;;;;;;;;;20.88;56.88;99627.59;2109134;27;19932;-48
2022/10/05 00:33:42;;;;;;;;;;;;;;;20.90;56.81;99627.41;2105108;27;19967;-50
2022/10/05 00:34:44;;;;;;;;;;;;;;;20.89;56.93;99621.16;2103216;27;19927;-49
2022/10/05 00:35:44;;;;;;;;;;;;;;;20.89;56.79;99623.03;2108121;27;20018;-49
2022/10/05 00:36:47;;;;;;;;;;;;;;;20.89;56.72;99621.16;2099503;27;20589;-50
2022/10/05 00:37:51;;;;;;;;;;;;;;;20.91;56.75;99631.75;2108562;27;19923;-51
2022/10/05 00:38:53;;;;;;;;;;;;;;;20.89;57.13;99626.56;2109771;27;20309;-51
2022/10/05 00:39:54;;;;;;;;;;;;;;;20.89;56.90;99623.03;2102943;27;19980;-50
2022/10/05 00:41:02;;;;;;;;;;;;;;;20.88;57.12;99624.91;2105380;27;19931;-49
2022/10/05 00:42:09;;;;;;;;;;;;;;;20.90;57.18;99624.72;2105666;27;19938;-50
2022/10/05 00:43:26;;;;;;;;;;;;;;;20.89;56.80;99623.03;2103401;27;20009;-48
2022/10/05 00:44:35;;;;;;;;;;;;;;;20.89;56.83;99620.34;2101958;27;19936;-52
2022/10/05 00:45:40;;;;;;;;;;;;;;;20.89;57.03;99623.84;2113619;27;19923;-49
2022/10/05 00:46:48;;;;;;;;;;;;;;;20.90;56.92;99625.53;2113140;27;19928;-49
2022/10/05 00:47:56;;;;;;;;;;;;;;;20.90;57.09;99622.00;2110055;27;19932;-48
2022/10/05 00:49:01;;;;;;;;;;;;;;;20.89;56.88;99625.72;2112348;27;19932;-49
2022/10/05 00:50:14;;;;;;;;;;;;;;;20.90;56.86;99619.31;2114094;27;19932;-49
2022/10/05 00:51:20;;;;;;;;;;;;;;;20.89;57.10;99620.34;2111181;27;19924;-50
2022/10/05 00:52:26;;;;;;;;;;;;;;;20.88;56.95;99613.28;2114025;27;19931;-49
2022/10/05 00:53:35;;;;;;;;;;;;;;;20.86;57.10;99610.75;2112662;27;19924;-48
2022/10/05 00:54:40;;;;;;;;;;;;;;;20.87;56.91;99611.63;2113623;27;19934;-50
2022/10/05 00:55:47;;;;;;;;;;;;;;;20.86;57.05;99613.47;2112089;27;19960;-50
2022/10/05 00:56:58;;;;;;;;;;;;;;;20.88;57.17;99618.69;2110149;27;20036;-52
2022/10/05 00:58:05;;;;;;;;;;;;;;;20.87;57.01;99606.22;2113860;27;20314;-50
2022/10/05 00:59:14;;;;;;;;;;;;;;;20.86;56.88;99599.16;2114811;27;19943;-49
2022/10/05 01:00:16;;;;;;;;;;;;;;;20.87;57.11;99608.94;2112165;27;19923;-51
2022/10/05 01:01:21;;;;;;;;;;;;;;;20.85;57.03;99602.88;2114453;27;19927;-50
2022/10/05 01:02:25;;;;;;;;;;;;;;;20.85;56.97;99598.31;2114837;27;19932;-50
2022/10/05 01:03:30;;;;;;;;;;;;;;;20.87;57.03;99603.53;2113731;27;19931;-50
2022/10/05 01:04:34;;;;;;;;;;;;;;;20.86;56.83;99599.16;2115474;27;19923;-49
2022/10/05 01:05:44;;;;;;;;;;;;;;;20.85;56.91;99609.09;2114756;27;20849;-52
2022/10/05 01:06:51;;;;;;;;;;;;;;;20.85;57.13;99603.72;2118250;27;19931;-50
2022/10/05 01:08:01;;;;;;;;;;;;;;;20.84;56.99;99603.91;2116732;27;20389;-52
2022/10/05 01:09:09;;;;;;;;;;;;;;;20.83;57.30;99604.94;2115245;27;19999;-51
2022/10/05 01:10:14;;;;;;;;;;;;;;;20.86;57.10;99601.84;2113025;27;19935;-49
2022/10/05 01:11:19;;;;;;;;;;;;;;;20.84;57.27;99602.06;2112204;27;20023;-48
2022/10/05 01:12:22;;;;;;;;;;;;;;;20.84;56.98;99599.38;2117755;27;20465;-52
2022/10/05 01:13:29;;;;;;;;;;;;;;;20.84;57.17;99603.91;2115438;27;19935;-52
2022/10/05 01:14:33;;;;;;;;;;;;;;;20.83;57.25;99605.75;2113602;27;20316;-51
2022/10/05 01:15:38;;;;;;;;;;;;;;;20.85;57.00;99595.63;2115919;27;20022;-49
2022/10/05 01:16:44;;;;;;;;;;;;;;;20.86;57.16;99596.44;2116603;27;19928;-52
2022/10/05 01:17:49;;;;;;;;;;;;;;;20.86;57.06;99599.16;2095577;27;20988;-50
2022/10/05 01:18:52;;;;;;;;;;;;;;;20.84;57.22;99604.75;2112954;27;19924;-48
2022/10/05 01:20:09;;;;;;;;;;;;;;;20.84;57.08;99601.19;2115750;27;19968;-50
2022/10/05 01:21:15;;;;;;;;;;;;;;;20.83;57.00;99596.84;2114931;27;20023;-51
2022/10/05 01:22:27;;;;;;;;;;;;;;;20.84;56.87;99591.28;2113029;27;20435;-50
2022/10/05 01:23:55;;;;;;;;;;;;;;;20.85;57.31;99602.88;2115460;27;19932;-50
2022/10/05 01:25:08;;;;;;;;;;;;;;;20.84;57.26;99599.38;2115995;27;19945;-51
2022/10/05 01:26:20;;;;;;;;;;;;;;;20.86;57.05;99601.84;2112411;27;19932;-50
2022/10/05 01:27:42;;;;;;;;;;;;;;;20.84;56.98;99599.38;2113110;27;20281;-49
2022/10/05 01:28:46;;;;;;;;;;;;;;;20.84;57.28;99598.50;2104509;27;19927;-49
2022/10/05 01:29:54;;;;;;;;;;;;;;;20.84;57.16;99593.97;2114718;27;19931;-49
2022/10/05 01:31:00;;;;;;;;;;;;;;;20.84;57.27;99596.66;2114489;27;19928;-49
2022/10/05 01:32:08;;;;;;;;;;;;;;;20.84;57.16;99596.66;2117996;27;20521;-50
2022/10/05 01:33:14;;;;;;;;;;;;;;;20.83;57.22;99600.38;2113233;27;19939;-48
2022/10/05 01:34:22;;;;;;;;;;;;;;;20.84;57.25;99598.50;2115438;27;19949;-47
2022/10/05 01:35:32;;;;;;;;;;;;;;;20.83;57.18;99588.75;2112842;27;20423;-49
2022/10/05 01:36:38;;;;;;;;;;;;;;;20.83;57.25;99588.75;2111456;27;19928;-50
2022/10/05 01:37:44;;;;;;;;;;;;;;;20.82;57.25;99587.94;2115634;27;20397;-49
2022/10/05 01:38:48;;;;;;;;;;;;;;;20.81;57.09;99594.38;2113485;27;19923;-48
2022/10/05 01:39:53;;;;;;;;;;;;;;;20.81;57.13;99585.41;2112970;27;19976;-50
2022/10/05 01:40:58;;;;;;;;;;;;;;;20.81;57.30;99590.81;2112773;27;20734;-51
2022/10/05 01:42:04;;;;;;;;;;;;;;;20.81;57.38;99590.81;2114373;27;19975;-49
2022/10/05 01:43:08;;;;;;;;;;;;;;;20.81;57.28;99591.66;2098679;27;20029;-49
2022/10/05 01:44:13;;;;;;;;;;;;;;;20.80;57.19;99589.16;2111232;27;19928;-49
2022/10/05 01:45:21;;;;;;;;;;;;;;;20.80;57.46;99599.94;2113174;27;19932;-48
2022/10/05 01:46:24;;;;;;;;;;;;;;;20.81;57.43;99593.50;2114494;27;19931;-50
2022/10/05 01:47:31;;;;;;;;;;;;;;;20.80;57.37;99589.16;2111956;27;19924;-48
2022/10/05 01:48:36;;;;;;;;;;;;;;;20.80;57.25;99595.38;2113726;27;19927;-49
2022/10/05 01:49:41;;;;;;;;;;;;;;;20.82;57.11;99592.50;2105599;27;21871;-49
2022/10/05 01:50:46;;;;;;;;;;;;;;;20.82;57.29;99587.09;2109776;27;19984;-49
2022/10/05 01:51:52;;;;;;;;;;;;;;;20.82;57.17;99593.31;2111847;27;19930;-49
2022/10/05 01:52:59;;;;;;;;;;;;;;;20.81;57.38;99588.09;2110937;27;19931;-49
2022/10/05 01:54:03;;;;;;;;;;;;;;;20.82;57.09;99590.63;2105639;27;19928;-47
2022/10/05 01:55:12;;;;;;;;;;;;;;;20.82;57.36;99592.50;2106161;27;19923;-50
2022/10/05 01:56:17;;;;;;;;;;;;;;;20.80;57.28;99589.97;2106631;27;19976;-49
2022/10/05 01:57:24;;;;;;;;;;;;;;;20.80;57.18;99592.69;2106877;27;20039;-48
2022/10/05 01:58:30;;;;;;;;;;;;;;;20.81;57.27;99596.19;2107949;27;20437;-49
2022/10/05 01:59:38;;;;;;;;;;;;;;;20.81;57.37;99597.06;2106242;27;19923;-50
2022/10/05 02:00:45;;;;;;;;;;;;;;;20.80;57.44;99592.69;2103846;27;20635;-49
2022/10/05 02:01:48;;;;;;;;;;;;;;;20.79;57.39;99599.09;2106697;27;19928;-50
2022/10/05 02:02:52;;;;;;;;;;;;;;;20.81;57.00;99594.38;2104489;27;19932;-49
2022/10/05 02:03:56;;;;;;;;;;;;;;;20.80;57.35;99589.16;2105232;28;22489;-49
2022/10/05 02:05:03;;;;;;;;;;;;;;;20.80;57.08;99594.53;2106719;27;20018;-48
2022/10/05 02:06:08;;;;;;;;;;;;;;;20.79;57.28;99590.19;2107019;27;19935;-48
2022/10/05 02:07:12;;;;;;;;;;;;;;;20.79;57.07;99596.41;2110823;27;20030;-49
2022/10/05 02:08:15;;;;;;;;;;;;;;;20.79;57.13;99592.88;2111095;27;19927;-51
2022/10/05 02:09:18;;;;;;;;;;;;;;;20.78;57.22;99592.03;2108857;28;19928;-49
2022/10/05 02:10:23;;;;;;;;;;;;;;;20.77;57.46;99595.75;2102392;28;20549;-49
2022/10/05 02:11:24;;;;;;;;;;;;;;;20.78;57.08;99597.41;2107321;28;20015;-50
2022/10/05 02:12:29;;;;;;;;;;;;;;;20.78;57.25;99600.13;2106521;28;19928;-49
2022/10/05 02:13:31;;;;;;;;;;;;;;;20.79;57.38;99592.88;2105363;28;19938;-51
2022/10/05 02:14:34;;;;;;;;;;;;;;;20.80;57.46;99600.75;2103669;27;19932;-51
2022/10/05 02:15:39;;;;;;;;;;;;;;;20.79;57.33;99596.41;2104698;27;21080;-51
2022/10/05 02:16:42;;;;;;;;;;;;;;;20.80;57.40;99599.94;2106147;28;19932;-51
2022/10/05 02:17:44;;;;;;;;;;;;;;;20.80;57.18;99597.25;2109417;28;19939;-52
2022/10/05 02:18:49;;;;;;;;;;;;;;;20.80;57.37;99603.47;2108369;28;19930;-53
2022/10/05 02:19:51;;;;;;;;;;;;;;;20.80;57.11;99606.16;2111812;28;19931;-53
2022/10/05 02:20:55;;;;;;;;;;;;;;;20.78;57.43;99602.81;2110393;27;19923;-50
2022/10/05 02:21:58;;;;;;;;;;;;;;;20.80;57.09;99603.47;2112891;27;20009;-53
2022/10/05 02:23:02;;;;;;;;;;;;;;;20.79;57.32;99604.50;2104051;28;20024;-54
2022/10/05 02:24:07;;;;;;;;;;;;;;;20.78;57.51;99607.38;2104686;28;19931;-54
2022/10/05 02:25:11;;;;;;;;;;;;;;;20.79;57.38;99598.28;2115696;28;19958;-52
2022/10/05 02:26:12;;;;;;;;;;;;;;;20.76;57.23;99602.19;2109422;28;19936;-54
2022/10/05 02:27:17;;;;;;;;;;;;;;;20.77;57.16;99598.47;2108681;28;19939;-55
2022/10/05 02:28:20;;;;;;;;;;;;;;;20.78;57.50;99599.28;2106782;28;20266;-53
2022/10/05 02:29:24;;;;;;;;;;;;;;;20.79;57.08;99600.97;2110439;27;19927;-51
2022/10/05 02:30:24;;;;;;;;;;;;;;;20.78;57.31;99599.28;2107348;27;20782;-56
2022/10/05 02:31:30;;;;;;;;;;;;;;;20.77;57.41;99600.31;2115051;27;19927;-49
2022/10/05 02:32:33;;;;;;;;;;;;;;;20.78;57.32;99601.97;2104052;27;19934;-53
2022/10/05 02:33:35;;;;;;;;;;;;;;;20.75;57.20;99593.28;2114207;27;19923;-50
2022/10/05 02:34:36;;;;;;;;;;;;;;;20.77;57.31;99601.16;2109550;27;19987;-47
2022/10/05 02:35:38;;;;;;;;;;;;;;;20.77;57.41;99600.31;2099864;27;19933;-54
2022/10/05 02:36:39;;;;;;;;;;;;;;;20.78;57.38;99602.81;2107628;27;19953;-53
2022/10/05 02:37:44;;;;;;;;;;;;;;;20.77;57.52;99605.72;2110675;27;19976;-51
2022/10/05 02:38:55;;;;;;;;;;;;;;;20.77;57.40;99600.31;2108566;27;20044;-54
2022/10/05 02:40:03;;;;;;;;;;;;;;;20.76;57.56;99596.81;2113457;27;20478;-55
2022/10/05 02:41:09;;;;;;;;;;;;;;;20.75;57.50;99601.38;2108634;27;19927;-50
2022/10/05 02:42:14;;;;;;;;;;;;;;;20.77;57.49;99601.16;2107750;27;19932;-52
2022/10/05 02:43:23;;;;;;;;;;;;;;;20.79;57.21;99596.41;2114457;27;19924;-51
2022/10/05 02:44:28;;;;;;;;;;;;;;;20.78;57.09;99592.03;2105291;27;19996;-51
2022/10/05 02:45:39;;;;;;;;;;;;;;;20.75;57.39;99590.59;2103531;27;19939;-51
2022/10/05 02:46:42;;;;;;;;;;;;;;;20.77;57.56;99600.31;2108621;27;20016;-51
2022/10/05 02:47:47;;;;;;;;;;;;;;;20.74;57.53;99590.75;2112839;27;20058;-49
2022/10/05 02:48:51;;;;;;;;;;;;;;;20.77;57.66;99592.25;2111625;27;20859;-51
2022/10/05 02:49:57;;;;;;;;;;;;;;;20.77;57.46;99592.25;2112448;27;19966;-48
2022/10/05 02:51:01;;;;;;;;;;;;;;;20.76;57.39;99599.50;2109738;27;19932;-49
2022/10/05 02:52:06;;;;;;;;;;;;;;;20.75;57.60;99601.38;2109081;27;19931;-50
2022/10/05 02:53:13;;;;;;;;;;;;;;;20.75;57.53;99601.38;2108329;27;19984;-48
2022/10/05 02:54:20;;;;;;;;;;;;;;;20.73;57.58;99595.31;2101228;27;19970;-51
2022/10/05 02:55:24;;;;;;;;;;;;;;;20.74;57.30;99596.16;2109612;27;19928;-48
2022/10/05 02:56:29;;;;;;;;;;;;;;;20.74;57.30;99588.06;2112295;27;19923;-49
2022/10/05 02:57:34;;;;;;;;;;;;;;;20.74;57.50;99590.75;2109422;27;19927;-49
2022/10/05 02:58:38;;;;;;;;;;;;;;;20.76;57.53;99591.41;2104718;27;20430;-51
2022/10/05 02:59:42;;;;;;;;;;;;;;;20.75;57.57;99590.59;2115853;27;19927;-51
2022/10/05 03:00:45;;;;;;;;;;;;;;;20.72;57.54;99588.25;2106654;27;20365;-48
2022/10/05 03:01:50;;;;;;;;;;;;;;;20.74;57.50;99596.16;2107768;27;19924;-51
2022/10/05 03:02:57;;;;;;;;;;;;;;;20.74;57.38;99588.91;2105258;27;19928;-52
2022/10/05 03:04:03;;;;;;;;;;;;;;;20.74;57.55;99591.59;2106597;27;19934;-50
2022/10/05 03:05:09;;;;;;;;;;;;;;;20.73;57.67;99589.94;2101715;27;19957;-47
2022/10/05 03:06:14;;;;;;;;;;;;;;;20.73;57.59;99595.31;2112379;27;19975;-52
2022/10/05 03:07:16;;;;;;;;;;;;;;;20.74;57.48;99591.59;2113698;27;19956;-52
2022/10/05 03:08:19;;;;;;;;;;;;;;;20.73;57.25;99595.31;2105455;27;19924;-54
2022/10/05 03:09:22;;;;;;;;;;;;;;;20.72;57.33;99596.34;2102534;27;19928;-55
2022/10/05 03:10:28;;;;;;;;;;;;;;;20.72;57.46;99600.91;2105715;28;19940;-55
2022/10/05 03:11:34;;;;;;;;;;;;;;;20.72;57.35;99603.59;2113640;27;20000;-53
2022/10/05 03:12:40;;;;;;;;;;;;;;;20.72;57.63;99598.19;2106524;27;19932;-53
2022/10/05 03:13:45;;;;;;;;;;;;;;;20.73;57.62;99600.72;2111368;27;19923;-53
2022/10/05 03:14:52;;;;;;;;;;;;;;;20.72;57.58;99604.41;2104960;27;21026;-51
2022/10/05 03:16:01;;;;;;;;;;;;;;;20.73;57.46;99599.88;2107655;27;19962;-52
2022/10/05 03:17:07;;;;;;;;;;;;;;;20.73;57.33;99602.59;2106836;27;19938;-52
2022/10/05 03:18:12;;;;;;;;;;;;;;;20.72;57.67;99601.72;2102223;27;19932;-56
2022/10/05 03:19:26;;;;;;;;;;;;;;;20.74;57.63;99613.16;2106125;27;19938;-50
2022/10/05 03:20:31;;;;;;;;;;;;;;;20.72;57.67;99609.00;2105633;27;19963;-48
2022/10/05 03:21:42;;;;;;;;;;;;;;;20.71;57.61;99612.72;2104128;27;20452;-52
2022/10/05 03:22:47;;;;;;;;;;;;;;;20.72;57.69;99607.13;2106428;27;19931;-52
2022/10/05 03:23:57;;;;;;;;;;;;;;;20.71;57.51;99610.84;2108090;27;19930;-51
2022/10/05 03:25:04;;;;;;;;;;;;;;;20.73;57.60;99607.97;2105410;27;20479;-56
2022/10/05 03:26:19;;;;;;;;;;;;;;;20.72;57.65;99609.00;2106704;27;19984;-48
2022/10/05 03:27:28;;;;;;;;;;;;;;;20.71;57.42;99608.16;2106999;27;19928;-54
2022/10/05 03:28:32;;;;;;;;;;;;;;;20.72;57.33;99609.81;2102484;27;20291;-50
2022/10/05 03:29:36;;;;;;;;;;;;;;;20.71;57.65;99610.84;2107909;27;20308;-49
2022/10/05 03:30:42;;;;;;;;;;;;;;;20.70;57.77;99609.19;2104257;27;19931;-54
2022/10/05 03:31:45;;;;;;;;;;;;;;;20.71;57.72;99613.56;2107820;27;19932;-51
2022/10/05 03:32:56;;;;;;;;;;;;;;;20.72;57.47;99623.28;2104477;27;19928;-56
2022/10/05 03:33:59;;;;;;;;;;;;;;;20.73;57.64;99618.75;2107837;27;20293;-53
2022/10/05 03:35:03;;;;;;;;;;;;;;;20.71;57.60;99610.84;2110795;27;20015;-51
2022/10/05 03:36:09;;;;;;;;;;;;;;;20.70;57.73;99608.38;2110950;28;19931;-55
2022/10/05 03:37:14;;;;;;;;;;;;;;;20.72;57.58;99612.50;2106749;27;22315;-52
2022/10/05 03:38:18;;;;;;;;;;;;;;;20.71;57.63;99608.16;2106483;27;19951;-53
2022/10/05 03:39:24;;;;;;;;;;;;;;;20.71;57.54;99616.25;2109503;27;19931;-49
2022/10/05 03:40:28;;;;;;;;;;;;;;;20.71;57.55;99607.31;2105579;27;19939;-52
2022/10/05 03:41:34;;;;;;;;;;;;;;;20.71;57.72;99608.16;2102440;27;19938;-55
2022/10/05 03:42:37;;;;;;;;;;;;;;;20.70;57.54;99601.09;2106857;27;20740;-52
2022/10/05 03:43:58;;;;;;;;;;;;;;;20.70;57.70;99603.81;2105377;27;19927;-50
2022/10/05 03:45:02;;;;;;;;;;;;;;;20.71;57.68;99602.75;2106682;27;19928;-50
2022/10/05 03:46:08;;;;;;;;;;;;;;;20.71;57.52;99605.47;2110422;27;19962;-54
2022/10/05 03:47:13;;;;;;;;;;;;;;;20.69;57.59;99596.72;2106185;27;19928;-51
2022/10/05 03:48:19;;;;;;;;;;;;;;;20.68;57.55;99596.94;2105894;27;19928;-56
2022/10/05 03:49:26;;;;;;;;;;;;;;;20.70;57.77;99600.28;2105362;27;20062;-50
2022/10/05 03:50:33;;;;;;;;;;;;;;;20.70;57.66;99589.50;2108257;27;19942;-51
2022/10/05 03:51:35;;;;;;;;;;;;;;;20.71;57.48;99600.06;2103199;27;20026;-50
2022/10/05 03:52:39;;;;;;;;;;;;;;;20.71;57.64;99597.38;2110291;27;19980;-50
2022/10/05 03:53:42;;;;;;;;;;;;;;;20.70;57.67;99594.88;2114813;27;19977;-49
2022/10/05 03:54:45;;;;;;;;;;;;;;;20.70;57.73;99598.41;2118196;27;19932;-52
2022/10/05 03:55:49;;;;;;;;;;;;;;;20.71;57.39;99602.75;2112310;27;19924;-52
2022/10/05 03:56:53;;;;;;;;;;;;;;;20.70;57.82;99595.72;2114419;27;19928;-51
2022/10/05 03:57:56;;;;;;;;;;;;;;;20.70;57.61;99602.97;2113618;27;19979;-48
2022/10/05 03:59:00;;;;;;;;;;;;;;;20.69;57.77;99599.41;2115293;27;19938;-49
2022/10/05 04:00:03;;;;;;;;;;;;;;;20.69;57.50;99599.41;2116920;27;20316;-50
2022/10/05 04:01:08;;;;;;;;;;;;;;;20.69;57.73;99598.59;2114918;27;20416;-49
2022/10/05 04:02:14;;;;;;;;;;;;;;;20.69;57.44;99599.41;2110529;27;19931;-48
2022/10/05 04:03:21;;;;;;;;;;;;;;;20.70;57.64;99606.50;2113369;27;20351;-50
2022/10/05 04:04:25;;;;;;;;;;;;;;;20.67;57.56;99601.50;2116742;27;20087;-48
2022/10/05 04:05:28;;;;;;;;;;;;;;;20.69;57.72;99603.97;2116061;27;19968;-50
2022/10/05 04:06:32;;;;;;;;;;;;;;;20.68;57.69;99600.47;2118331;27;19928;-52
2022/10/05 04:07:42;;;;;;;;;;;;;;;20.69;57.52;99607.50;2114835;27;20322;-49
2022/10/05 04:08:46;;;;;;;;;;;;;;;20.68;57.46;99603.16;2115329;27;19927;-48
2022/10/05 04:09:51;;;;;;;;;;;;;;;20.68;57.91;99602.31;2110019;27;20837;-49
2022/10/05 04:10:54;;;;;;;;;;;;;;;20.70;57.70;99605.66;2116260;27;19938;-50
2022/10/05 04:12:00;;;;;;;;;;;;;;;20.69;57.53;99607.50;2112274;27;19927;-49
2022/10/05 04:13:05;;;;;;;;;;;;;;;20.69;57.46;99598.59;2112968;27;19927;-51
2022/10/05 04:14:10;;;;;;;;;;;;;;;20.69;57.65;99598.59;2110871;27;19923;-48
2022/10/05 04:15:16;;;;;;;;;;;;;;;20.69;57.70;99598.59;2110558;27;20701;-49
2022/10/05 04:16:21;;;;;;;;;;;;;;;20.69;57.74;99603.97;2110164;28;19928;-49
2022/10/05 04:17:26;;;;;;;;;;;;;;;20.69;57.71;99602.13;2116720;27;20018;-51
2022/10/05 04:18:32;;;;;;;;;;;;;;;20.67;57.83;99601.50;2111004;27;20571;-49
2022/10/05 04:19:36;;;;;;;;;;;;;;;20.67;57.65;99598.81;2116530;27;20354;-48
2022/10/05 04:20:42;;;;;;;;;;;;;;;20.67;57.63;99596.09;2114350;27;19970;-50
2022/10/05 04:21:46;;;;;;;;;;;;;;;20.67;57.73;99597.94;2114037;27;19924;-48
2022/10/05 04:22:53;;;;;;;;;;;;;;;20.66;57.75;99598.97;2108592;27;19934;-48
2022/10/05 04:23:57;;;;;;;;;;;;;;;20.65;57.63;99598.16;2106653;27;19979;-50
2022/10/05 04:25:02;;;;;;;;;;;;;;;20.67;57.53;99600.63;2101331;27;20023;-49
2022/10/05 04:26:04;;;;;;;;;;;;;;;20.68;57.72;99603.16;2106425;27;19932;-51
2022/10/05 04:27:09;;;;;;;;;;;;;;;20.68;57.52;99591.53;2101813;27;20062;-48
2022/10/05 04:28:14;;;;;;;;;;;;;;;20.67;57.80;99597.94;2105287;27;19927;-48
2022/10/05 04:29:23;;;;;;;;;;;;;;;20.65;57.55;99595.47;2107315;27;19931;-47
2022/10/05 04:30:24;;;;;;;;;;;;;;;20.66;57.44;99597.13;2107506;27;20576;-48
2022/10/05 04:31:33;;;;;;;;;;;;;;;20.67;57.63;99596.09;2105761;27;19976;-52
2022/10/05 04:32:36;;;;;;;;;;;;;;;20.67;57.76;99600.63;2111476;27;19932;-48
2022/10/05 04:33:38;;;;;;;;;;;;;;;20.67;57.82;99601.50;2115703;27;19931;-48
2022/10/05 04:34:46;;;;;;;;;;;;;;;20.65;57.82;99598.16;2106423;27;19932;-54
2022/10/05 04:36:03;;;;;;;;;;;;;;;20.65;57.92;99602.72;2105136;27;19955;-54
2022/10/05 04:37:06;;;;;;;;;;;;;;;20.65;57.92;99598.16;2104301;27;19932;-51
2022/10/05 04:38:19;;;;;;;;;;;;;;;20.64;57.60;99601.03;2107691;27;20735;-51
2022/10/05 04:39:22;;;;;;;;;;;;;;;20.66;57.92;99599.81;2107972;27;19928;-51
2022/10/05 04:40:33;;;;;;;;;;;;;;;20.66;57.59;99607.91;2105013;27;19923;-49
2022/10/05 04:41:47;;;;;;;;;;;;;;;20.65;57.65;99598.16;2107084;27;19932;-51
2022/10/05 04:42:55;;;;;;;;;;;;;;;20.65;57.67;99605.41;2106635;27;19974;-50
2022/10/05 04:44:03;;;;;;;;;;;;;;;20.66;57.64;99602.50;2107255;27;19924;-51
2022/10/05 04:45:08;;;;;;;;;;;;;;;20.65;57.84;99598.16;2102688;27;19972;-48
2022/10/05 04:46:17;;;;;;;;;;;;;;;20.64;57.87;99603.72;2105246;27;19980;-55
2022/10/05 04:47:30;;;;;;;;;;;;;;;20.66;57.77;99605.19;2103845;27;19930;-50
2022/10/05 04:48:43;;;;;;;;;;;;;;;20.66;57.80;99604.38;2103196;27;20560;-49
2022/10/05 04:49:54;;;;;;;;;;;;;;;20.65;57.77;99603.53;2107881;27;20014;-51
2022/10/05 04:51:03;;;;;;;;;;;;;;;20.65;57.78;99598.16;2111010;27;19927;-51
2022/10/05 04:52:11;;;;;;;;;;;;;;;20.66;57.66;99598.97;2105204;27;19955;-49
2022/10/05 04:53:16;;;;;;;;;;;;;;;20.67;57.91;99606.03;2103862;27;19996;-51
2022/10/05 04:54:22;;;;;;;;;;;;;;;20.66;57.59;99604.38;2107389;27;20296;-51
2022/10/05 04:55:27;;;;;;;;;;;;;;;20.67;57.58;99598.81;2105249;27;19928;-48
2022/10/05 04:56:32;;;;;;;;;;;;;;;20.66;57.62;99598.97;2103933;27;20437;-49
2022/10/05 04:57:38;;;;;;;;;;;;;;;20.63;57.90;99600.19;2105159;27;19931;-51
2022/10/05 04:58:47;;;;;;;;;;;;;;;20.64;57.94;99601.84;2105644;27;20289;-50
2022/10/05 05:00:00;;;;;;;;;;;;;;;20.64;57.59;99607.25;2104264;27;19939;-47
2022/10/05 05:01:08;;;;;;;;;;;;;;;20.64;57.71;99603.72;2104909;27;19928;-50
2022/10/05 05:02:14;;;;;;;;;;;;;;;20.65;57.95;99598.16;2105959;27;20456;-51
2022/10/05 05:03:27;;;;;;;;;;;;;;;20.64;57.91;99604.56;2107979;27;19931;-50
2022/10/05 05:04:35;;;;;;;;;;;;;;;20.65;57.86;99603.53;2106996;27;19924;-52
2022/10/05 05:05:43;;;;;;;;;;;;;;;20.64;57.64;99606.41;2106379;27;19935;-49
2022/10/05 05:06:49;;;;;;;;;;;;;;;20.65;58.07;99610.81;2110325;27;20730;-48
2022/10/05 05:07:54;;;;;;;;;;;;;;;20.63;57.98;99604.75;2108946;27;19924;-50
2022/10/05 05:09:21;;;;;;;;;;;;;;;20.63;57.87;99600.19;2105492;27;20370;-50
2022/10/05 05:10:35;;;;;;;;;;;;;;;20.64;57.70;99606.41;2101574;27;19928;-50
2022/10/05 05:11:41;;;;;;;;;;;;;;;20.63;57.85;99610.16;2106374;27;20022;-51
2022/10/05 05:12:46;;;;;;;;;;;;;;;20.62;57.89;99614.72;2109603;27;19927;-49
2022/10/05 05:13:57;;;;;;;;;;;;;;;20.63;57.98;99610.16;2104079;27;19932;-51
2022/10/05 05:15:05;;;;;;;;;;;;;;;20.63;57.96;99616.38;2103121;27;19978;-51
2022/10/05 05:16:10;;;;;;;;;;;;;;;20.63;57.86;99610.16;2108098;27;19931;-51
2022/10/05 05:17:16;;;;;;;;;;;;;;;20.60;57.69;99611.38;2105215;27;19931;-51
2022/10/05 05:18:33;;;;;;;;;;;;;;;20.63;57.79;99616.38;2104122;27;20399;-48
2022/10/05 05:19:40;;;;;;;;;;;;;;;20.63;57.96;99618.25;2105830;27;20000;-48
2022/10/05 05:20:49;;;;;;;;;;;;;;;20.63;57.88;99615.53;2106282;27;19938;-51
2022/10/05 05:21:54;;;;;;;;;;;;;;;20.62;57.90;99620.09;2101260;27;20052;-48
2022/10/05 05:23:01;;;;;;;;;;;;;;;20.62;57.68;99620.09;2104540;27;19935;-49
2022/10/05 05:24:04;;;;;;;;;;;;;;;20.63;57.64;99619.06;2106035;27;19931;-48
2022/10/05 05:25:24;;;;;;;;;;;;;;;20.63;57.69;99610.16;2106319;27;20066;-54
2022/10/05 05:26:28;;;;;;;;;;;;;;;20.62;58.00;99613.88;2104849;27;20640;-49
2022/10/05 05:27:38;;;;;;;;;;;;;;;20.61;58.00;99623.81;2105230;27;19928;-52
2022/10/05 05:28:45;;;;;;;;;;;;;;;20.62;57.75;99613.88;2106527;27;19929;-50
2022/10/05 05:29:53;;;;;;;;;;;;;;;20.61;57.73;99618.41;2102755;27;19954;-48
2022/10/05 05:30:59;;;;;;;;;;;;;;;20.62;57.75;99619.28;2104393;27;19931;-49
2022/10/05 05:32:07;;;;;;;;;;;;;;;20.62;57.80;99614.72;2105835;27;19931;-51
2022/10/05 05:33:14;;;;;;;;;;;;;;;20.60;58.03;99611.38;2103854;27;20426;-54
2022/10/05 05:34:33;;;;;;;;;;;;;;;20.60;58.12;99614.06;2111641;27;19934;-48
2022/10/05 05:35:46;;;;;;;;;;;;;;;20.60;57.88;99616.75;2116126;27;19981;-50
2022/10/05 05:36:56;;;;;;;;;;;;;;;20.60;57.85;99618.63;2106879;27;20021;-49
2022/10/05 05:38:01;;;;;;;;;;;;;;;20.60;58.14;99619.47;2102046;27;19934;-50
2022/10/05 05:39:20;;;;;;;;;;;;;;;20.59;58.00;99620.50;2104235;27;19992;-49
2022/10/05 05:40:24;;;;;;;;;;;;;;;20.60;57.98;99614.06;2104757;27;19929;-49
2022/10/05 05:41:29;;;;;;;;;;;;;;;20.61;57.91;99621.13;2101865;27;20018;-51
2022/10/05 05:42:36;;;;;;;;;;;;;;;20.62;58.02;99633.59;2110298;27;20383;-51
2022/10/05 05:43:47;;;;;;;;;;;;;;;20.61;57.92;99628.38;2114575;27;19930;-51